West Burlington, Iowa
Current Conditions -  °F | °C
As of 6:53 PM on Thursday 18 Dec 2014 (Local Time) from KBRL Reporting Station
Overcast Overcast  
Wind Chill: 28°   Ceiling: 3900
Heat Index: 28°   Visibility: 10mi
Dew Point: 20°   Wind: 0mph
Humidity: 72%   Direction: NA
Pressure: 30.27"   Gusts: NA
Location:  40.83°N, 91.16°W
Report Text: KBRL 190053Z AUTO 00000KT 10SM BKN039 OVC049 M02/M07 A3027 RMK AO2 SLP259 T10221067
Loading
Personal Weather Stations






























Interactive Weather Map New forecast layout! Learn more

10-Day Weather Forecast

Advertisements
Track Severe Weather on mobile